Paul Brotzge — WDD4377 — position and weather

sailwx.info

Track history (hours):
 
Tides and Currents Weather Stations Pressure Air Temp Water Temp Dewpoint Dewpoint Depression Visibility Wind Speed Wind Dir Waves Ship Positions

Paul Brotzge

Owner: American Commercial Lines LLC, Jeffersonville, IN. More information available from US FCC via Universal Licensing System and Coast Guard Vessel Documentation Center.

Last reported at 2018-May-15 03:22 UTC. Time now 2018-Jun-21 06:53 UTC.
Position N 39°43' W 090°38'.
Warning: this ship's position is 37 days out of date.

Length 44 m; draft 2.9 m.

Type: Tow > 200 m length. MMSI: 367143920.

Date/timePositionNaut miles runAvg speedWind from/ knotsBaromVisibWave heightAir tempDewpointWater temp
2018-May-15 03:22N 39°43' W 090°38'32 3.7
2018-May-14 18:50N 39°12' W 090°36'1 3.6
2018-May-14 18:30N 39°11' W 090°36'2 3.7
2018-May-14 18:00N 39°09' W 090°37'2 3.7
2018-May-14 17:30N 39°07' W 090°36'0 0.9
2018-May-14 17:00N 39°07' W 090°36'0 0.0
2018-May-14 16:30N 39°07' W 090°36'0 0.0
2018-May-14 16:00N 39°07' W 090°36'0 0.0
2018-May-14 15:30N 39°07' W 090°36'2 4.1
2018-May-14 15:00N 39°05' W 090°35'2 3.9
2018-May-14 14:28N 39°03' W 090°35'2 4.4
2018-May-14 14:00N 39°01' W 090°35'2 4.8
2018-May-14 13:30N 38°59' W 090°33'2 4.5
2018-May-14 13:00N 38°57' W 090°31'2 4.9
2018-May-14 12:30N 38°58' W 090°28'2 3.9
2018-May-14 12:00N 38°58' W 090°25'2 3.2
2018-May-14 11:30N 38°58' W 090°23'0 0.0
2018-May-14 11:00N 38°58' W 090°23'0 0.1
2018-May-14 10:30N 38°58' W 090°23'0 0.4
2018-May-14 10:00N 38°58' W 090°23'2 3.4
2018-May-14 09:30N 38°57' W 090°21'3 5.0
2018-May-14 09:00N 38°55' W 090°19'3 5.0
2018-May-14 08:30N 38°55' W 090°15'2 4.6
2018-May-14 08:00N 38°54' W 090°13'1 1.3
2018-May-14 07:30N 38°54' W 090°12'1 1.8
2018-May-14 07:00N 38°53' W 090°11'2 4.0
2018-May-14 06:30N 38°52' W 090°09'0 0.3
2018-May-14 06:00N 38°52' W 090°09'1 2.2
2018-May-14 05:30N 38°52' W 090°08'0 0.0
2018-May-14 05:00N 38°52' W 090°08'0 0.0
2018-May-14 04:30N 38°51' W 090°08'0 0.0
2018-May-14 04:00N 38°51' W 090°08'0 0.0
2018-May-14 03:30N 38°51' W 090°08'0 0.0
2018-May-14 03:00N 38°51' W 090°08'1 2.6
2018-May-14 02:30N 38°51' W 090°06'2 2.9
2018-May-14 01:59N 38°49' W 090°07'1 1.7
2018-May-14 01:30N 38°48' W 090°07'2 3.5
2018-May-14 01:00N 38°47' W 090°08'1 1.8
2018-May-14 00:28N 38°46' W 090°08'10 1.1
2018-May-13 15:39N 38°36' W 090°11'0 0.1
2018-May-13 14:30N 38°36' W 090°11'0 0.1
2018-May-13 13:28N 38°36' W 090°11'0 0.0
2018-May-13 08:11N 38°36' W 090°11'0 0.4
2018-May-13 07:22N 38°37' W 090°11'  
2018-May-07 17:52N 38°36' W 090°12'3 7.3
2018-May-07 17:29N 38°38' W 090°11'3 6.8
2018-May-07 16:59N 38°42' W 090°11'1 1.2
2018-May-07 16:30N 38°42' W 090°11'2 2.8
2018-May-07 15:45N 38°44' W 090°10'1 3.4
2018-May-07 15:28N 38°45' W 090°09'2 3.4
2018-May-07 14:58N 38°46' W 090°08'2 4.2
2018-May-07 14:30N 38°48' W 090°07'3 6.0
2018-May-07 14:00N 38°51' W 090°07'2 3.1
2018-May-07 13:30N 38°52' W 090°09'0 0.0
2018-May-07 13:00N 38°52' W 090°09'0 0.0
2018-May-07 12:30N 38°52' W 090°09'0 0.0
2018-May-07 12:00N 38°52' W 090°09'0 0.2
2018-May-07 11:30N 38°52' W 090°09'0 0.9
2018-May-07 11:00N 38°52' W 090°09'1 2.7
2018-May-07 10:30N 38°53' W 090°11'3 5.9
2018-May-07 10:00N 38°55' W 090°14'3 6.5
2018-May-07 09:30N 38°55' W 090°18'3 6.7
2018-May-07 09:00N 38°57' W 090°22'3 6.5
2018-May-07 08:30N 38°58' W 090°26'3 6.9
2018-May-07 08:00N 38°56' W 090°29'3 6.9
2018-May-07 07:30N 38°53' W 090°32'3 6.6
2018-May-07 07:00N 38°52' W 090°36'3 6.8
2018-May-07 06:30N 38°55' W 090°39'4 7.1
2018-May-07 06:00N 38°58' W 090°40'2 4.8
2018-May-07 05:30N 39°00' W 090°41'0 0.0
2018-May-07 05:00N 39°00' W 090°41'0 0.2
2018-May-07 04:30N 39°00' W 090°41'0 0.3
2018-May-07 04:00N 39°00' W 090°42'2 3.2
2018-May-07 03:30N 39°02' W 090°42'4 5.5
2018-May-07 02:48N 39°06' W 090°41'2 5.9
2018-May-07 02:30N 39°07' W 090°41'4 5.8
2018-May-07 01:47N 39°11' W 090°43'2 6.1
2018-May-07 01:29N 39°13' W 090°43'  
Track history (hours):
 
Tides and Currents Weather Stations Pressure Air Temp Water Temp Dewpoint Dewpoint Depression Visibility Wind Speed Wind Dir Waves Ship Positions

Paul Brotzge

Owner: American Commercial Lines LLC, Jeffersonville, IN. More information available from US FCC via Universal Licensing System and Coast Guard Vessel Documentation Center.

Last reported at 2018-May-15 03:22 UTC. Time now 2018-Jun-21 06:53 UTC.
Position N 39°43' W 090°38'.
Warning: this ship's position is 37 days out of date.

Length 44 m; draft 2.9 m.

Type: Tow > 200 m length. MMSI: 367143920.

Date/timePositionNaut miles runAvg speedWind from/ knotsBaromVisibWave heightAir tempDewpointWater temp
2018-May-15 03:22N 39°43' W 090°38'32 3.7
2018-May-14 18:50N 39°12' W 090°36'1 3.6
2018-May-14 18:30N 39°11' W 090°36'2 3.7
2018-May-14 18:00N 39°09' W 090°37'2 3.7
2018-May-14 17:30N 39°07' W 090°36'0 0.9
2018-May-14 17:00N 39°07' W 090°36'0 0.0
2018-May-14 16:30N 39°07' W 090°36'0 0.0
2018-May-14 16:00N 39°07' W 090°36'0 0.0
2018-May-14 15:30N 39°07' W 090°36'2 4.1
2018-May-14 15:00N 39°05' W 090°35'2 3.9
2018-May-14 14:28N 39°03' W 090°35'2 4.4
2018-May-14 14:00N 39°01' W 090°35'2 4.8
2018-May-14 13:30N 38°59' W 090°33'2 4.5
2018-May-14 13:00N 38°57' W 090°31'2 4.9
2018-May-14 12:30N 38°58' W 090°28'2 3.9
2018-May-14 12:00N 38°58' W 090°25'2 3.2
2018-May-14 11:30N 38°58' W 090°23'0 0.0
2018-May-14 11:00N 38°58' W 090°23'0 0.1
2018-May-14 10:30N 38°58' W 090°23'0 0.4
2018-May-14 10:00N 38°58' W 090°23'2 3.4
2018-May-14 09:30N 38°57' W 090°21'3 5.0
2018-May-14 09:00N 38°55' W 090°19'3 5.0
2018-May-14 08:30N 38°55' W 090°15'2 4.6
2018-May-14 08:00N 38°54' W 090°13'1 1.3
2018-May-14 07:30N 38°54' W 090°12'1 1.8
2018-May-14 07:00N 38°53' W 090°11'2 4.0
2018-May-14 06:30N 38°52' W 090°09'0 0.3
2018-May-14 06:00N 38°52' W 090°09'1 2.2
2018-May-14 05:30N 38°52' W 090°08'0 0.0
2018-May-14 05:00N 38°52' W 090°08'0 0.0
2018-May-14 04:30N 38°51' W 090°08'0 0.0
2018-May-14 04:00N 38°51' W 090°08'0 0.0
2018-May-14 03:30N 38°51' W 090°08'0 0.0
2018-May-14 03:00N 38°51' W 090°08'1 2.6
2018-May-14 02:30N 38°51' W 090°06'2 2.9
2018-May-14 01:59N 38°49' W 090°07'1 1.7
2018-May-14 01:30N 38°48' W 090°07'2 3.5
2018-May-14 01:00N 38°47' W 090°08'1 1.8
2018-May-14 00:28N 38°46' W 090°08'10 1.1
2018-May-13 15:39N 38°36' W 090°11'0 0.1
2018-May-13 14:30N 38°36' W 090°11'0 0.1
2018-May-13 13:28N 38°36' W 090°11'0 0.0
2018-May-13 08:11N 38°36' W 090°11'0 0.4
2018-May-13 07:22N 38°37' W 090°11'  
2018-May-07 17:52N 38°36' W 090°12'3 7.3
2018-May-07 17:29N 38°38' W 090°11'3 6.8
2018-May-07 16:59N 38°42' W 090°11'1 1.2
2018-May-07 16:30N 38°42' W 090°11'2 2.8
2018-May-07 15:45N 38°44' W 090°10'1 3.4
2018-May-07 15:28N 38°45' W 090°09'2 3.4
2018-May-07 14:58N 38°46' W 090°08'2 4.2
2018-May-07 14:30N 38°48' W 090°07'3 6.0
2018-May-07 14:00N 38°51' W 090°07'2 3.1
2018-May-07 13:30N 38°52' W 090°09'0 0.0
2018-May-07 13:00N 38°52' W 090°09'0 0.0
2018-May-07 12:30N 38°52' W 090°09'0 0.0
2018-May-07 12:00N 38°52' W 090°09'0 0.2
2018-May-07 11:30N 38°52' W 090°09'0 0.9
2018-May-07 11:00N 38°52' W 090°09'1 2.7
2018-May-07 10:30N 38°53' W 090°11'3 5.9
2018-May-07 10:00N 38°55' W 090°14'3 6.5
2018-May-07 09:30N 38°55' W 090°18'3 6.7
2018-May-07 09:00N 38°57' W 090°22'3 6.5
2018-May-07 08:30N 38°58' W 090°26'3 6.9
2018-May-07 08:00N 38°56' W 090°29'3 6.9
2018-May-07 07:30N 38°53' W 090°32'3 6.6
2018-May-07 07:00N 38°52' W 090°36'3 6.8
2018-May-07 06:30N 38°55' W 090°39'4 7.1
2018-May-07 06:00N 38°58' W 090°40'2 4.8
2018-May-07 05:30N 39°00' W 090°41'0 0.0
2018-May-07 05:00N 39°00' W 090°41'0 0.2
2018-May-07 04:30N 39°00' W 090°41'0 0.3
2018-May-07 04:00N 39°00' W 090°42'2 3.2
2018-May-07 03:30N 39°02' W 090°42'4 5.5
2018-May-07 02:48N 39°06' W 090°41'2 5.9
2018-May-07 02:30N 39°07' W 090°41'4 5.8
2018-May-07 01:47N 39°11' W 090°43'2 6.1
2018-May-07 01:29N 39°13' W 090°43'  

Dump ship's entire track history